Terminal Aerodrome Forecast
Issued by NWS

Home | Current Version | Previous Version | Text Only | Print | Product List | Glossary On
Versions: 1 2 3 4 5 6 7 8 9 10 11 12 13 14 15 16 17 18 19 20
000
FTUS42 KFFC 022331
TAFFTY
TAF
KFTY 022331Z 0300/0324 30006KT P6SM SCT025 BKN070
      TEMPO 0300/0303 -RA BKN020
     FM030300 34004KT 6SM BR OVC010
     FM030600 04002KT 3SM -RADZ BR OVC007
     FM031000 07003KT 2SM -RADZ BR OVC004
     FM031600 10004KT 3SM -RADZ BR OVC005
     FM032100 10005KT 4SM BR OVC007=

USA.gov is the U.S. government's official web portal to all federal, state and local government web resources and services.